Time;durP1;ratioP1;P1;durP2;ratioP2;P2;SDS_P1;SDS_P2;PMS_P1;PMS_P2;Temp;Humidity;BMP_temperature;BMP_pressure;BME280_temperature;BME280_humidity;BME280_pressure;Samples;Min_cycle;Max_cycle;Signal;HPM_P1;HPM_P2
2023/02/17 00:01:25;;;;;;;25.17;12.30;;;;;;;8.30;97.97;101405.59;5050355;28;20454;-66
2023/02/17 00:03:53;;;;;;;24.10;11.00;;;;;;;8.19;99.16;101402.06;5051634;28;20456;-66
2023/02/17 00:06:22;;;;;;;21.70;10.53;;;;;;;8.13;100.00;101388.78;5054139;28;20458;-66
2023/02/17 00:08:49;;;;;;;25.83;13.00;;;;;;;8.06;100.00;101378.25;5051397;28;20466;-65
2023/02/17 00:11:16;;;;;;;18.43;9.93;;;;;;;7.99;100.00;101377.69;5053867;28;20807;-65
2023/02/17 00:13:43;;;;;;;27.93;11.87;;;;;;;8.00;100.00;101363.91;5051298;28;20545;-66
2023/02/17 00:16:12;;;;;;;26.23;11.47;;;;;;;8.03;100.00;101384.19;5050776;28;20565;-66
2023/02/17 00:18:39;;;;;;;25.00;11.83;;;;;;;8.02;100.00;101366.38;5050844;28;20542;-65
2023/02/17 00:21:15;;;;;;;25.60;10.87;;;;;;;8.02;100.00;101372.56;5053188;28;20457;-66
2023/02/17 00:23:41;;;;;;;28.43;12.03;;;;;;;8.03;100.00;101373.38;5051792;28;20450;-66
2023/02/17 00:26:08;;;;;;;24.87;11.90;;;;;;;8.04;100.00;101381.22;5053687;28;20485;-66
2023/02/17 00:28:35;;;;;;;29.33;12.87;;;;;;;8.02;100.00;101372.56;5053103;28;20450;-67
2023/02/17 00:31:06;;;;;;;29.13;12.33;;;;;;;8.01;100.00;101376.34;5052631;28;20452;-67
2023/02/17 00:33:32;;;;;;;29.23;13.37;;;;;;;7.99;100.00;101366.91;5053229;28;20788;-68
2023/02/17 00:35:59;;;;;;;27.17;13.40;;;;;;;8.01;100.00;101356.63;5047461;28;20566;-66
2023/02/17 00:38:28;;;;;;;22.20;12.48;;;;;;;7.98;100.00;101359.88;5036395;22;1104450;-67
2023/02/17 00:40:55;;;;;;;27.40;13.00;;;;;;;7.97;100.00;101347.44;5029146;28;20696;-68
2023/02/17 00:43:22;;;;;;;32.70;11.60;;;;;;;8.00;100.00;101346.94;5029924;28;20463;-67
2023/02/17 00:45:48;;;;;;;31.67;14.00;;;;;;;7.98;100.00;101338.31;5035205;28;20543;-68
2023/02/17 00:48:15;;;;;;;34.53;13.90;;;;;;;7.97;100.00;101342.06;5034247;28;20489;-67
2023/02/17 00:50:41;;;;;;;28.77;11.60;;;;;;;7.98;100.00;101338.31;5033594;28;20459;-65
2023/02/17 00:53:08;;;;;;;27.87;12.83;;;;;;;8.01;100.00;101343.16;5033845;28;20458;-65
2023/02/17 00:55:36;;;;;;;29.90;14.00;;;;;;;8.02;100.00;101342.09;5034459;28;20469;-64
2023/02/17 00:58:03;;;;;;;36.60;12.40;;;;;;;8.02;100.00;101334.81;5034755;28;20479;-64
2023/02/17 01:00:29;;;;;;;23.40;11.37;;;;;;;8.01;100.00;101333.19;5027812;28;20467;-66
2023/02/17 01:02:56;;;;;;;28.20;13.77;;;;;;;8.06;100.00;101327.00;5034684;28;20458;-65
2023/02/17 01:05:22;;;;;;;28.17;12.37;;;;;;;8.07;100.00;101331.31;5032862;28;20463;-65
2023/02/17 01:07:49;;;;;;;38.60;12.90;;;;;;;8.09;100.00;101319.16;5033755;28;21015;-65
2023/02/17 01:10:16;;;;;;;26.87;11.07;;;;;;;8.15;100.00;101320.00;5033253;28;21026;-63
2023/02/17 01:12:44;;;;;;;29.40;12.53;;;;;;;8.18;100.00;101311.34;5032888;28;20459;-64
2023/02/17 01:15:10;;;;;;;23.77;11.47;;;;;;;8.13;100.00;101324.84;5034532;28;20450;-64
2023/02/17 01:17:37;;;;;;;25.40;11.70;;;;;;;8.14;100.00;101307.56;5033618;28;20494;-65
2023/02/17 01:20:05;;;;;;;31.57;11.97;;;;;;;8.18;100.00;101305.16;5033500;28;20518;-64
2023/02/17 01:22:31;;;;;;;28.40;11.80;;;;;;;8.19;100.00;101301.38;5033383;28;20497;-65
2023/02/17 01:24:58;;;;;;;28.13;12.80;;;;;;;8.19;100.00;101299.50;5033045;28;20908;-65
2023/02/17 01:27:25;;;;;;;25.17;13.33;;;;;;;8.23;100.00;101297.06;5034086;28;20438;-65
2023/02/17 01:29:53;;;;;;;23.97;13.07;;;;;;;8.26;100.00;101291.13;5032364;28;20486;-64
2023/02/17 01:32:19;;;;;;;26.37;10.80;;;;;;;8.29;100.00;101287.91;5033146;28;20506;-65
2023/02/17 01:34:47;;;;;;;28.00;12.07;;;;;;;8.29;100.00;101286.03;5033117;28;20471;-66
2023/02/17 01:37:14;;;;;;;25.13;11.00;;;;;;;8.26;100.00;101286.56;5034210;28;20490;-65
2023/02/17 01:39:41;;;;;;;26.83;12.20;;;;;;;8.28;100.00;101281.72;5032631;28;20491;-66
2023/02/17 01:42:14;;;;;;;26.83;12.27;;;;;;;8.31;100.00;101278.44;5033171;28;20463;-65
2023/02/17 01:45:27;;;;;;;29.40;11.00;;;;;;;8.38;100.00;101267.44;5033697;28;20463;-66
2023/02/17 01:47:59;;;;;;;27.47;12.27;;;;;;;8.35;100.00;101266.03;5033949;28;20473;-66
2023/02/17 01:50:30;;;;;;;28.80;11.60;;;;;;;8.39;99.95;101268.25;5032224;28;20749;-64
2023/02/17 01:53:01;;;;;;;27.00;12.07;;;;;;;8.39;100.00;101262.84;5032871;28;20489;-63
2023/02/17 01:55:28;;;;;;;41.00;13.33;;;;;;;8.38;100.00;101258.53;5034295;28;20860;-64
2023/02/17 01:57:59;;;;;;;29.63;14.13;;;;;;;8.39;100.00;101254.75;5031880;28;20859;-65
2023/02/17 02:00:29;;;;;;;30.93;11.90;;;;;;;8.33;100.00;101265.53;5033582;28;20419;-65
2023/02/17 02:02:57;;;;;;;27.83;13.23;;;;;;;8.28;100.00;101252.03;5030563;28;20469;-65
2023/02/17 02:05:23;;;;;;;26.50;12.53;;;;;;;8.20;100.00;101249.84;5033413;28;20944;-66
2023/02/17 02:07:51;;;;;;;35.27;12.67;;;;;;;8.15;100.00;101236.34;5033412;28;20458;-66
2023/02/17 02:10:19;;;;;;;28.50;12.67;;;;;;;8.12;100.00;101238.78;5033053;28;21035;-66
2023/02/17 02:12:46;;;;;;;27.70;13.37;;;;;;;8.06;100.00;101233.38;5033586;28;20530;-66
2023/02/17 02:15:15;;;;;;;29.53;12.73;;;;;;;8.03;100.00;101222.31;5032125;28;20467;-66
2023/02/17 02:17:56;;;;;;;30.40;11.93;;;;;;;8.01;100.00;101219.06;5033203;28;20585;-66
2023/02/17 02:20:45;;;;;;;26.87;10.63;;;;;;;7.97;100.00;101212.56;5032270;28;20462;-66
2023/02/17 02:23:40;;;;;;;25.47;11.70;;;;;;;7.97;100.00;101196.38;5032549;28;20431;-67
2023/02/17 02:26:49;;;;;;;24.47;10.17;;;;;;;7.98;100.00;101192.63;5030673;28;20455;-65
2023/02/17 02:29:58;;;;;;;26.53;10.83;;;;;;;7.95;100.00;101180.47;5032087;28;20490;-66
2023/02/17 02:32:43;;;;;;;30.17;12.87;;;;;;;7.96;100.00;101184.78;5032673;28;20463;-66
2023/02/17 02:35:15;;;;;;;25.80;11.00;;;;;;;7.96;100.00;101179.41;5032004;28;20459;-65
2023/02/17 02:37:47;;;;;;;26.27;11.03;;;;;;;7.93;100.00;101189.94;5033211;28;20464;-65
2023/02/17 02:40:16;;;;;;;22.10;10.70;;;;;;;7.97;100.00;101182.91;5031963;28;20505;-65
2023/02/17 02:42:44;;;;;;;27.93;11.47;;;;;;;7.94;100.00;101181.56;5033283;28;20487;-65
2023/02/17 02:45:12;;;;;;;35.73;14.80;;;;;;;7.95;100.00;101175.09;5032185;28;20467;-66
2023/02/17 02:47:45;;;;;;;30.17;14.03;;;;;;;7.92;100.00;101172.09;5032228;28;20439;-66
2023/02/17 02:50:16;;;;;;;29.23;12.60;;;;;;;7.92;100.00;101166.72;5031175;28;20570;-67
2023/02/17 02:52:54;;;;;;;40.77;12.60;;;;;;;7.89;100.00;101159.19;5032830;28;20458;-66
2023/02/17 02:55:31;;;;;;;25.17;11.97;;;;;;;7.92;100.00;101156.72;5031689;28;20469;-66
2023/02/17 02:58:06;;;;;;;24.30;11.70;;;;;;;7.89;100.00;101154.59;5032877;28;20463;-66
2023/02/17 03:00:41;;;;;;;30.90;13.60;;;;;;;7.88;100.00;101150.28;5031502;28;20959;-65
2023/02/17 03:03:17;;;;;;;28.57;13.03;;;;;;;7.92;100.00;101145.13;5032842;28;20534;-65
2023/02/17 03:05:55;;;;;;;31.17;12.57;;;;;;;7.84;100.00;101144.63;5030872;28;20968;-65
2023/02/17 03:08:31;;;;;;;35.23;14.60;;;;;;;7.83;100.00;101137.59;5031956;28;20866;-67
2023/02/17 03:10:58;;;;;;;32.33;13.80;;;;;;;7.83;100.00;101129.53;5032724;28;20518;-66
2023/02/17 03:13:24;;;;;;;31.63;11.80;;;;;;;7.86;100.00;101135.44;5031003;28;20562;-66
2023/02/17 03:15:51;;;;;;;29.40;12.83;;;;;;;7.84;100.00;101128.44;5031998;28;20458;-65
2023/02/17 03:18:19;;;;;;;32.83;12.60;;;;;;;7.86;100.00;101117.38;5032426;28;21034;-66
2023/02/17 03:20:51;;;;;;;35.27;14.13;;;;;;;7.89;100.00;101126.81;5031794;28;20895;-68
2023/02/17 03:23:17;;;;;;;28.70;12.70;;;;;;;7.87;100.00;101115.47;5031764;28;20991;-66
2023/02/17 03:25:46;;;;;;;34.90;13.80;;;;;;;7.88;100.00;101122.47;5031003;28;20995;-66
2023/02/17 03:28:13;;;;;;;28.50;12.10;;;;;;;7.84;100.00;101123.03;5032823;28;20525;-67
2023/02/17 03:30:40;;;;;;;31.30;13.60;;;;;;;7.89;100.00;101135.72;5030971;28;20465;-66
2023/02/17 03:33:06;;;;;;;30.40;15.00;;;;;;;7.86;100.00;101125.44;5032968;28;20530;-67
2023/02/17 03:35:34;;;;;;;27.70;13.47;;;;;;;7.88;100.00;101128.72;5031568;28;20491;-67
2023/02/17 03:38:01;;;;;;;28.03;12.50;;;;;;;7.92;100.00;101128.94;5032349;28;20483;-65
2023/02/17 03:40:27;;;;;;;33.60;14.00;;;;;;;7.93;100.00;101127.91;5031576;28;21007;-66
2023/02/17 03:42:56;;;;;;;40.50;14.67;;;;;;;7.95;100.00;101126.53;5032748;28;20525;-64
2023/02/17 03:45:22;;;;;;;41.23;13.70;;;;;;;7.91;100.00;101119.25;5031451;28;20463;-66
2023/02/17 03:47:49;;;;;;;30.87;13.80;;;;;;;7.92;100.00;101121.66;5015411;28;20519;-65
2023/02/17 03:50:16;;;;;;;34.27;15.50;;;;;;;7.91;100.00;101108.47;5025488;28;20566;-66
2023/02/17 03:52:44;;;;;;;26.67;13.20;;;;;;;7.90;100.00;101110.34;5032564;28;20522;-66
2023/02/17 03:55:11;;;;;;;33.17;14.20;;;;;;;7.89;100.00;101114.13;5031445;28;20538;-67
2023/02/17 03:57:38;;;;;;;24.07;11.97;;;;;;;7.90;100.00;101104.97;5032886;28;20853;-65
2023/02/17 04:00:05;;;;;;;26.10;11.70;;;;;;;7.90;100.00;101104.16;5035003;28;20474;-66
2023/02/17 04:02:32;;;;;;;30.60;13.20;;;;;;;7.84;100.00;101100.66;5018301;28;20547;-66
2023/02/17 04:04:59;;;;;;;29.73;13.40;;;;;;;7.83;100.00;101099.84;5036118;28;20816;-67
2023/02/17 04:07:25;;;;;;;29.87;12.37;;;;;;;7.87;100.00;101104.69;5034925;28;20491;-70
2023/02/17 04:09:53;;;;;;;32.10;13.03;;;;;;;7.87;100.00;101094.69;5035605;28;20996;-69
2023/02/17 04:12:20;;;;;;;31.90;14.13;;;;;;;7.90;100.00;101088.78;5035128;28;20555;-70
2023/02/17 04:14:46;;;;;;;37.07;14.57;;;;;;;7.92;100.00;101096.59;5034621;28;20467;-69
2023/02/17 04:17:13;;;;;;;28.70;13.40;;;;;;;7.94;100.00;101097.94;5034377;28;20494;-69
2023/02/17 04:19:39;;;;;;;28.20;13.87;;;;;;;7.90;100.00;101099.56;5035732;28;20467;-69
2023/02/17 04:22:07;;;;;;;29.83;12.30;;;;;;;7.93;100.00;101096.34;5035310;28;20483;-69
2023/02/17 04:24:35;;;;;;;28.73;13.20;;;;;;;7.92;100.00;101085.78;5034776;28;20565;-70
2023/02/17 04:27:03;;;;;;;30.53;11.73;;;;;;;7.97;100.00;101077.69;5034360;28;20478;-71
2023/02/17 04:29:29;;;;;;;29.73;12.00;;;;;;;7.91;100.00;101079.59;5035383;28;20553;-68
2023/02/17 04:31:56;;;;;;;28.57;12.57;;;;;;;7.93;100.00;101068.56;5034475;28;20469;-69
2023/02/17 04:34:22;;;;;;;29.13;13.00;;;;;;;7.96;100.00;101062.59;5035474;28;20531;-70
2023/02/17 04:36:49;;;;;;;33.47;11.70;;;;;;;7.96;100.00;101065.28;5032580;28;20558;-70
2023/02/17 04:39:16;;;;;;;28.80;13.27;;;;;;;7.95;100.00;101077.16;5034482;28;20525;-69
2023/02/17 04:41:42;;;;;;;25.80;12.30;;;;;;;7.91;100.00;101089.59;5033783;28;20482;-70
2023/02/17 04:44:10;;;;;;;25.73;12.10;;;;;;;7.90;100.00;101088.78;5034692;28;20455;-70
2023/02/17 04:46:37;;;;;;;25.00;11.33;;;;;;;7.95;100.00;101079.88;5034616;28;20444;-72
2023/02/17 04:49:04;;;;;;;26.50;11.97;;;;;;;7.97;100.00;101072.31;5034491;28;20477;-70
2023/02/17 04:51:31;;;;;;;31.37;12.60;;;;;;;7.92;100.00;101072.31;5033773;28;20538;-70
2023/02/17 04:53:57;;;;;;;27.63;12.10;;;;;;;7.97;100.00;101065.03;5034886;28;20447;-70
2023/02/17 04:56:24;;;;;;;30.00;11.50;;;;;;;7.99;100.00;101059.38;5033793;28;20467;-70
2023/02/17 04:58:51;;;;;;;25.10;12.20;;;;;;;7.97;100.00;101056.13;5033628;28;20497;-71
2023/02/17 05:01:19;;;;;;;22.00;10.93;;;;;;;7.97;100.00;101056.13;5034666;28;20451;-72
2023/02/17 05:03:45;;;;;;;26.80;12.47;;;;;;;7.96;100.00;101062.59;5034145;28;20491;-70
2023/02/17 05:06:12;;;;;;;33.97;13.97;;;;;;;7.98;100.00;101049.66;5034674;28;20443;-70
2023/02/17 05:08:38;;;;;;;26.33;12.00;;;;;;;7.95;100.00;101058.28;5033012;28;20567;-70
2023/02/17 05:11:05;;;;;;;32.80;12.43;;;;;;;8.03;100.00;101052.34;5033556;28;20534;-70
2023/02/17 05:13:32;;;;;;;27.70;11.77;;;;;;;8.05;100.00;101053.69;5034562;28;20469;-70
2023/02/17 05:15:59;;;;;;;25.67;11.97;;;;;;;8.04;100.00;101049.38;5033747;28;20467;-70
2023/02/17 05:18:27;;;;;;;30.70;12.23;;;;;;;8.05;100.00;101048.28;5033158;28;20992;-70
2023/02/17 05:20:53;;;;;;;31.13;13.00;;;;;;;8.05;100.00;101042.88;5033384;28;20462;-70
2023/02/17 05:23:20;;;;;;;26.00;12.47;;;;;;;8.04;100.00;101035.88;5034473;28;20546;-71
2023/02/17 05:25:46;;;;;;;28.13;12.27;;;;;;;8.03;100.00;101039.66;5033255;28;20567;-71
2023/02/17 05:28:13;;;;;;;30.60;12.83;;;;;;;8.04;100.00;101040.47;5034595;28;20816;-71
2023/02/17 05:30:40;;;;;;;32.13;13.40;;;;;;;8.01;100.00;101027.53;5033294;28;20466;-71
2023/02/17 05:33:06;;;;;;;31.73;13.07;;;;;;;8.00;100.00;101028.59;5022575;28;20459;-71
2023/02/17 05:35:35;;;;;;;24.53;12.30;;;;;;;7.97;100.00;101029.16;5034289;28;20446;-71
2023/02/17 05:38:02;;;;;;;27.13;12.23;;;;;;;7.99;100.00;101027.81;5033330;28;20497;-71
2023/02/17 05:40:28;;;;;;;30.20;12.20;;;;;;;8.05;100.00;101031.28;5033367;28;20462;-71
2023/02/17 05:42:55;;;;;;;32.77;12.90;;;;;;;8.04;100.00;101030.50;5034132;28;20441;-71
2023/02/17 05:45:21;;;;;;;30.50;13.00;;;;;;;8.03;100.00;101028.88;5033583;28;20836;-71
2023/02/17 05:47:48;;;;;;;28.53;13.50;;;;;;;8.02;100.00;101029.97;5032966;28;20447;-71
2023/02/17 05:50:14;;;;;;;28.83;12.90;;;;;;;8.02;100.00;101031.84;5033102;28;20463;-72
2023/02/17 05:52:42;;;;;;;27.87;11.90;;;;;;;8.03;100.00;101025.38;5032033;28;20451;-72
2023/02/17 05:55:09;;;;;;;24.40;11.87;;;;;;;8.01;100.00;101027.53;5033332;28;20473;-71
2023/02/17 05:57:36;;;;;;;27.97;13.20;;;;;;;7.98;100.00;101017.28;5033473;28;20801;-70
2023/02/17 06:00:03;;;;;;;30.50;12.90;;;;;;;8.04;100.00;101018.91;5032676;28;20471;-70
2023/02/17 06:02:30;;;;;;;31.13;12.50;;;;;;;8.02;100.00;101015.69;5033958;28;20447;-70
2023/02/17 06:04:56;;;;;;;35.93;12.50;;;;;;;8.04;100.00;101013.50;5031452;28;21029;-71
2023/02/17 06:07:23;;;;;;;32.33;12.83;;;;;;;8.09;100.00;101003.50;5032035;28;20463;-70
2023/02/17 06:09:51;;;;;;;28.30;11.27;;;;;;;8.10;100.00;101007.00;5033630;28;20455;-70
2023/02/17 06:12:17;;;;;;;40.20;13.43;;;;;;;8.09;100.00;101000.00;5032390;28;20881;-71
2023/02/17 06:14:44;;;;;;;34.27;12.40;;;;;;;8.11;100.00;101003.25;5033540;28;20479;-71
2023/02/17 06:17:11;;;;;;;31.37;13.00;;;;;;;8.11;100.00;100997.84;5031798;28;20463;-70
2023/02/17 06:19:37;;;;;;;35.70;12.37;;;;;;;8.13;100.00;100994.88;5031469;28;20573;-70
2023/02/17 06:22:04;;;;;;;26.00;13.93;;;;;;;8.16;100.00;100988.94;5032392;28;20446;-72
2023/02/17 06:24:31;;;;;;;23.87;11.13;;;;;;;8.18;100.00;100994.84;5023846;28;20490;-71
2023/02/17 06:26:59;;;;;;;31.53;13.17;;;;;;;8.20;100.00;100981.91;5031389;28;20467;-71
2023/02/17 06:29:26;;;;;;;26.63;11.87;;;;;;;8.24;100.00;100977.56;5032605;28;20494;-71
2023/02/17 06:31:53;;;;;;;24.77;11.73;;;;;;;8.23;100.00;100978.63;5032418;28;20470;-70
2023/02/17 06:34:19;;;;;;;23.73;11.40;;;;;;;8.23;100.00;100984.84;5031227;28;20457;-69
2023/02/17 06:36:46;;;;;;;26.47;11.70;;;;;;;8.26;100.00;100989.69;5033356;28;20543;-69
2023/02/17 06:39:13;;;;;;;22.87;10.43;;;;;;;8.31;100.00;100983.47;5056132;22;20550;-68
2023/02/17 06:41:39;;;;;;;24.57;11.70;;;;;;;8.33;100.00;100976.72;5012726;28;20818;-68
2023/02/17 06:44:07;;;;;;;21.60;10.30;;;;;;;8.34;100.00;100978.31;5012484;28;20462;-68
2023/02/17 06:46:34;;;;;;;33.00;11.67;;;;;;;8.35;100.00;100987.22;5013411;28;20547;-68
2023/02/17 06:49:00;;;;;;;25.03;11.67;;;;;;;8.35;100.00;100977.22;5012369;28;20543;-67
2023/02/17 06:51:27;;;;;;;18.67;10.10;;;;;;;8.42;100.00;100965.38;5012697;28;20470;-68
2023/02/17 06:53:54;;;;;;;24.27;11.03;;;;;;;8.43;100.00;100970.50;5012531;28;20557;-68
2023/02/17 06:56:21;;;;;;;26.00;11.40;;;;;;;8.43;100.00;100978.59;5011195;28;20825;-68
2023/02/17 06:58:48;;;;;;;22.17;11.40;;;;;;;8.49;100.00;100968.56;5013058;28;20492;-68
2023/02/17 07:01:18;;;;;;;25.63;11.00;;;;;;;8.52;100.00;100955.31;5012269;28;20895;-68
2023/02/17 07:03:45;;;;;;;21.77;10.73;;;;;;;8.60;100.00;100956.66;5006144;28;20464;-69
2023/02/17 07:06:12;;;;;;;23.03;10.47;;;;;;;8.54;100.00;100953.19;5009233;28;20513;-68
2023/02/17 07:08:39;;;;;;;22.17;10.20;;;;;;;8.57;100.00;100947.19;5011121;28;20467;-68
2023/02/17 07:11:06;;;;;;;21.83;10.27;;;;;;;8.61;100.00;100957.44;5003829;28;20461;-68
2023/02/17 07:13:33;;;;;;;24.73;11.30;;;;;;;8.61;100.00;100952.84;5006783;28;20465;-70
2023/02/17 07:15:59;;;;;;;24.00;10.23;;;;;;;8.63;100.00;100956.06;5001433;28;20440;-68
2023/02/17 07:18:28;;;;;;;24.27;11.10;;;;;;;8.70;100.00;100953.88;5004435;28;20502;-68
2023/02/17 07:20:54;;;;;;;24.93;10.47;;;;;;;8.69;100.00;100954.97;5008723;28;20562;-68
2023/02/17 07:23:21;;;;;;;24.07;11.60;;;;;;;8.69;100.00;100952.28;5008818;28;20462;-68
2023/02/17 07:25:47;;;;;;;25.30;11.40;;;;;;;8.76;100.00;100949.25;5007547;28;20850;-68
2023/02/17 07:28:14;;;;;;;28.23;11.97;;;;;;;8.78;100.00;100956.00;5005489;28;20551;-69
2023/02/17 07:30:42;;;;;;;21.90;10.67;;;;;;;8.84;100.00;100951.38;5006480;28;20493;-68
2023/02/17 07:33:10;;;;;;;24.40;10.23;;;;;;;8.82;100.00;100956.25;5012009;28;20460;-68
2023/02/17 07:35:43;;;;;;;26.00;10.20;;;;;;;8.87;100.00;100945.41;5015578;28;20546;-68
2023/02/17 07:38:10;;;;;;;26.40;10.27;;;;;;;8.82;100.00;100945.44;5016418;28;20929;-68
2023/02/17 07:40:37;;;;;;;24.27;10.03;;;;;;;8.80;100.00;100937.59;5013175;28;20574;-69
2023/02/17 07:43:04;;;;;;;19.83;9.33;;;;;;;8.87;100.00;100931.91;5015854;28;20460;-68
2023/02/17 07:45:32;;;;;;;20.00;9.60;;;;;;;8.92;100.00;100921.06;5004016;28;20432;-68
2023/02/17 07:47:58;;;;;;;21.33;10.13;;;;;;;8.98;100.00;100933.44;5008057;28;20558;-67
2023/02/17 07:50:25;;;;;;;36.03;12.30;;;;;;;9.02;100.00;100925.56;5008330;28;20563;-68
2023/02/17 07:52:53;;;;;;;16.50;8.23;;;;;;;9.09;100.00;100926.06;5009223;28;20445;-67
2023/02/17 07:55:19;;;;;;;19.13;9.87;;;;;;;9.09;100.00;100926.88;5008626;28;20518;-67
2023/02/17 07:57:46;;;;;;;23.03;9.50;;;;;;;9.15;100.00;100921.41;5012980;28;20628;-67
2023/02/17 08:00:14;;;;;;;17.03;8.47;;;;;;;9.19;100.00;100927.88;5006703;28;20492;-68
2023/02/17 08:02:40;;;;;;;20.53;8.30;;;;;;;9.24;100.00;100931.34;5004654;28;20459;-69
2023/02/17 08:05:07;;;;;;;23.30;10.03;;;;;;;9.28;100.00;100937.78;5008845;28;20540;-69
2023/02/17 08:07:34;;;;;;;23.70;8.90;;;;;;;9.26;100.00;100926.47;5013978;28;20467;-68
2023/02/17 08:15:32;;;;;;;19.10;8.33;;;;;;;9.33;100.00;100921.53;5010157;28;20993;-69
2023/02/17 08:17:59;;;;;;;18.07;9.00;;;;;;;9.34;100.00;100920.44;5014823;28;20468;-69
2023/02/17 08:20:26;;;;;;;20.47;8.40;;;;;;;9.42;100.00;100920.91;5014254;28;20499;-69
2023/02/17 08:22:52;;;;;;;15.60;7.47;;;;;;;9.41;100.00;100919.31;5015599;28;20484;-67
2023/02/17 08:25:20;;;;;;;19.63;8.20;;;;;;;9.37;100.00;100921.75;5014884;28;20471;-69
2023/02/17 08:27:47;;;;;;;18.70;9.17;;;;;;;9.31;100.00;100918.31;5015822;28;20472;-70
2023/02/17 08:30:14;;;;;;;16.53;7.67;;;;;;;9.26;100.00;100912.94;5014414;28;20566;-69
2023/02/17 08:32:40;;;;;;;18.40;7.43;;;;;;;9.29;100.00;100914.25;5014618;28;20988;-68
2023/02/17 08:35:08;;;;;;;15.30;6.77;;;;;;;9.29;100.00;100917.78;5013424;28;20562;-70
2023/02/17 08:37:34;;;;;;;23.43;6.70;;;;;;;9.34;100.00;100911.50;5015233;28;20459;-69
2023/02/17 08:40:01;;;;;;;22.07;8.23;;;;;;;9.35;100.00;100911.25;5013928;28;20487;-68
2023/02/17 08:42:32;;;;;;;16.20;6.77;;;;;;;9.37;100.00;100900.13;5014954;28;20483;-65
2023/02/17 08:44:58;;;;;;;13.90;6.93;;;;;;;9.36;100.00;100906.63;5014569;28;20451;-68
2023/02/17 08:47:25;;;;;;;14.73;6.73;;;;;;;9.37;100.00;100904.75;5015092;28;20444;-68
2023/02/17 08:49:51;;;;;;;21.90;8.20;;;;;;;9.42;100.00;100901.97;5014253;28;20476;-68
2023/02/17 08:52:18;;;;;;;14.70;6.77;;;;;;;9.39;100.00;100892.56;5014520;28;20460;-67
2023/02/17 08:54:45;;;;;;;17.87;7.33;;;;;;;9.36;100.00;100887.72;5014110;28;20463;-69
2023/02/17 08:57:12;;;;;;;17.80;8.07;;;;;;;9.37;100.00;100880.41;5015260;28;20479;-69
2023/02/17 08:59:40;;;;;;;17.17;8.07;;;;;;;9.34;100.00;100869.09;5014078;28;20493;-69
2023/02/17 09:02:07;;;;;;;20.07;7.83;;;;;;;9.36;100.00;100857.97;5012529;28;20466;-69
2023/02/17 09:04:33;;;;;;;14.27;6.87;;;;;;;9.38;100.00;100854.97;5012970;28;20495;-69
2023/02/17 09:07:00;;;;;;;15.07;7.30;;;;;;;9.40;100.00;100847.41;5014237;28;20837;-69
2023/02/17 09:09:27;;;;;;;15.27;7.70;;;;;;;9.31;100.00;100842.63;5011296;28;20465;-69
2023/02/17 09:11:55;;;;;;;15.07;7.10;;;;;;;9.35;100.00;100843.66;5005073;28;20537;-68
2023/02/17 09:14:23;;;;;;;13.87;6.77;;;;;;;9.40;100.00;100839.28;5006209;28;20459;-69
2023/02/17 09:16:51;;;;;;;14.00;6.60;;;;;;;9.37;100.00;100837.16;5004059;28;20885;-69
2023/02/17 09:19:18;;;;;;;17.00;8.10;;;;;;;9.37;100.00;100829.84;5004953;28;20839;-69
2023/02/17 09:21:45;;;;;;;17.23;8.40;;;;;;;9.41;100.00;100824.69;5006919;28;20496;-69
2023/02/17 09:24:11;;;;;;;15.00;6.43;;;;;;;9.38;100.00;100815.22;5003344;28;20527;-69
2023/02/17 09:26:38;;;;;;;20.33;7.37;;;;;;;9.38;100.00;100814.44;5004799;28;20464;-69
2023/02/17 09:29:04;;;;;;;16.37;7.50;;;;;;;9.42;100.00;100815.47;5002862;28;20467;-69
2023/02/17 09:31:31;;;;;;;19.10;7.60;;;;;;;9.44;100.00;100807.88;5000184;28;20464;-69
2023/02/17 09:33:59;;;;;;;25.93;7.60;;;;;;;9.49;100.00;100815.94;5013438;28;20518;-69
2023/02/17 09:36:29;;;;;;;16.60;7.67;;;;;;;9.47;100.00;100799.19;5009668;28;21012;-69
2023/02/17 09:38:56;;;;;;;15.53;7.27;;;;;;;9.44;100.00;100791.66;5002178;28;21077;-69
2023/02/17 09:41:26;;;;;;;12.60;7.40;;;;;;;9.47;100.00;100796.47;5004869;28;20491;-68
2023/02/17 09:43:54;;;;;;;18.00;7.87;;;;;;;9.43;100.00;100787.34;5004549;28;20527;-68
2023/02/17 09:46:27;;;;;;;15.60;7.27;;;;;;;9.46;100.00;100787.56;5006966;28;20455;-69
2023/02/17 09:48:58;;;;;;;21.27;8.70;;;;;;;9.43;100.00;100790.03;5001914;28;20433;-69
2023/02/17 09:51:33;;;;;;;17.00;8.93;;;;;;;9.46;100.00;100782.16;5007214;28;20474;-69
2023/02/17 09:54:06;;;;;;;18.90;8.90;;;;;;;9.44;100.00;100780.84;5012937;28;20814;-69
2023/02/17 09:56:39;;;;;;;16.77;8.40;;;;;;;9.44;100.00;100770.03;5009219;28;20539;-69
2023/02/17 09:59:10;;;;;;;21.63;8.83;;;;;;;9.49;100.00;100761.88;5012880;28;20914;-69
2023/02/17 10:01:38;;;;;;;15.70;8.03;;;;;;;9.45;100.00;100764.34;5012799;28;20476;-69
2023/02/17 10:04:10;;;;;;;17.23;8.67;;;;;;;9.48;100.00;100766.47;5012900;28;20446;-68
2023/02/17 10:06:41;;;;;;;14.97;8.73;;;;;;;9.45;100.00;100758.13;5012090;28;20567;-69
2023/02/17 10:09:15;;;;;;;25.70;10.17;;;;;;;9.48;100.00;100757.56;5001988;28;20425;-69
2023/02/17 10:11:46;;;;;;;15.57;7.87;;;;;;;9.49;100.00;100756.47;5002576;28;20468;-68
2023/02/17 10:14:17;;;;;;;20.20;10.47;;;;;;;9.45;100.00;100747.31;5003571;28;20552;-69
2023/02/17 10:16:49;;;;;;;22.43;8.90;;;;;;;9.48;100.00;100744.03;5002029;28;20479;-68
2023/02/17 10:19:21;;;;;;;20.40;9.23;;;;;;;9.46;100.00;100747.00;5002976;28;21086;-69
2023/02/17 10:21:58;;;;;;;21.43;10.20;;;;;;;9.52;100.00;100753.19;5004487;28;20529;-69
2023/02/17 10:24:25;;;;;;;23.67;8.70;;;;;;;9.51;100.00;100733.44;5007563;28;20451;-69
2023/02/17 10:27:03;;;;;;;16.80;8.60;;;;;;;9.52;100.00;100728.84;5001198;28;20449;-69
2023/02/17 10:29:39;;;;;;;21.43;9.20;;;;;;;9.58;100.00;100711.44;5002756;28;20472;-68
2023/02/17 10:32:19;;;;;;;16.60;8.03;;;;;;;9.56;100.00;100710.91;5003630;28;20461;-68
2023/02/17 10:34:58;;;;;;;22.73;8.63;;;;;;;9.59;100.00;100713.06;5003102;28;20460;-68
2023/02/17 10:37:37;;;;;;;16.50;8.13;;;;;;;9.64;100.00;100718.38;5004076;28;20892;-68
2023/02/17 10:40:14;;;;;;;20.67;7.77;;;;;;;9.69;100.00;100710.19;4999451;28;20488;-68
2023/02/17 10:42:40;;;;;;;22.63;9.13;;;;;;;9.69;100.00;100709.41;5003927;28;20451;-68
2023/02/17 10:45:13;;;;;;;21.50;8.83;;;;;;;9.72;100.00;100698.81;5003484;28;20862;-68
2023/02/17 10:47:40;;;;;;;17.20;8.27;;;;;;;9.78;100.00;100696.81;5003927;28;20516;-68
2023/02/17 10:50:17;;;;;;;21.70;9.33;;;;;;;9.83;100.00;100705.69;5004756;28;20484;-68
2023/02/17 10:52:45;;;;;;;16.30;7.93;;;;;;;9.88;100.00;100704.00;5000605;28;20455;-68
2023/02/17 10:55:21;;;;;;;19.70;9.23;;;;;;;9.92;100.00;100686.91;4999986;28;20533;-68
2023/02/17 10:57:53;;;;;;;20.23;9.50;;;;;;;9.93;100.00;100679.59;5002059;28;20918;-69
2023/02/17 11:00:20;;;;;;;21.50;8.43;;;;;;;9.94;100.00;100671.16;5000609;28;20566;-68
2023/02/17 11:02:49;;;;;;;22.13;10.00;;;;;;;10.00;100.00;100663.75;5003769;28;21264;-68
2023/02/17 11:05:24;;;;;;;19.83;8.23;;;;;;;10.06;100.00;100657.19;4999293;28;20985;-68
2023/02/17 11:07:58;;;;;;;26.77;10.20;;;;;;;10.04;100.00;100651.25;5001047;28;20539;-68
2023/02/17 11:10:28;;;;;;;22.40;10.10;;;;;;;10.11;100.00;100630.81;5012499;28;20490;-68
2023/02/17 11:12:57;;;;;;;16.70;8.60;;;;;;;10.09;100.00;100630.34;5010744;28;20542;-68
2023/02/17 11:15:27;;;;;;;17.60;7.67;;;;;;;10.16;100.00;100627.22;5005718;28;20456;-68
2023/02/17 11:17:54;;;;;;;21.67;9.53;;;;;;;10.21;100.00;100616.31;5007389;28;21041;-68
2023/02/17 11:20:41;;;;;;;19.10;8.70;;;;;;;10.22;100.00;100612.50;5005580;28;20566;-68
2023/02/17 11:23:23;;;;;;;18.93;8.50;;;;;;;10.25;100.00;100611.94;5004648;28;20462;-69
2023/02/17 11:25:59;;;;;;;20.50;9.83;;;;;;;10.29;100.00;100612.97;5007409;28;20455;-68